Archival Weather

Chicago O'Hare International

Chicago, Illinois (KORD)

Report from: Sunday, March 6, 2022 2:51 PM CST
Current time: Saturday, February 4, 2023 9:34 PM CST

Current weather
Weather history
Weather forecast

Temperature5.0°C (41.0°F)
Wind chill0.8°C (33.5°F)
Dew point-2.2°C (28.0°F)
Winds 12 kts (6.2 m/s, 13.8 mph) West (270°)
Wind gusts 22 kts (11.3 m/s, 25.3 mph)
Visibility10 mi. (16.1 km)
Clouds Scattered clouds 2,600 ft. (792 m)
Ceiling: Broken clouds 25,000 ft. (7,620 m)
Altimeter30.03 in.Hg (1017 mB)
Relative humidity60 %
Density altitude-1,253 ft. (-382 m)
Sea-level pressure101.7 kPa (1017 mB, 30.04 in.Hg)
Remarks System requires maintenance
Automated weather observing station with precipitation discriminator
Pressure rising more quickly
Flight conditions Visual Meteorological Conditions
Raw dataKORD 062051Z 27012G22KT 10SM SCT026 BKN250 05/M02 A3003 RMK AO2 SLP174 T00501022 53011 $
An unhandled exception has occurred. See browser dev tools for details. Reload 🗙